Wednesday, November 22, 2017, 7:52 AM EST
Back to Local

KRUT, Rutland, Rutland-southern Vermont Regional Airport

Location: North Clarendon, VT, United States Lat: 43.533
Local Time: 7:52 AM EST (12:52 GMT) Lon: -72.95
Time Zone: US/Eastern Elev: 787 ft

Show me the last for .
Show Decoded

2017-11-22 06:56 METAR KRUT 221156Z AUTO 13011KT 10SM CLR 02/M03 A2989 RMK AO2 SLP143 T00171028
                 10028 20006 57010 FZRANO $ =
2017-11-22 05:56 METAR KRUT 221056Z AUTO 10005KT 10SM BKN100 02/M03 A2988 RMK AO2 SLP141
                 T00171033 FZRANO $ =
2017-11-22 04:56 METAR KRUT 220956Z AUTO 14008KT 10SM BKN090 02/M03 A2992 RMK AO2 SLP152
                 T00171033 FZRANO $ =
2017-11-22 03:56 METAR KRUT 220856Z AUTO 13009KT 10SM CLR 01/M04 A2992 RMK AO2 SLP155 T00111039
                 53001 FZRANO $ =
2017-11-22 02:56 METAR KRUT 220756Z AUTO 12011KT 10SM CLR 03/M04 A2990 RMK AO2 SLP148 T00281039 $
                 =
2017-11-22 01:56 METAR KRUT 220656Z AUTO 12010KT 10SM CLR 02/M04 A2992 RMK AO2 SLP154 T00171039
                 FZRANO $ =
2017-11-22 00:56 METAR KRUT 220556Z AUTO 12011KT 10SM CLR 02/M04 A2991 RMK AO2 SLP152 T00171039
                 10072 20017 58004 FZRANO $ =
2017-11-21 23:56 METAR KRUT 220456Z AUTO 13008KT 10SM CLR 03/M04 A2993 RMK AO2 SLP159 T00331044
                 401391022 $ =
2017-11-21 22:56 METAR KRUT 220356Z AUTO 13006KT 10SM CLR 05/M04 A2993 RMK AO2 SLP158 T00501044 $
                 =
2017-11-21 21:56 METAR KRUT 220256Z AUTO 15004KT 10SM CLR 06/M04 A2993 RMK AO2 SLP158 T00611044
                 50008 $ =
2017-11-21 20:56 METAR KRUT 220156Z AUTO 00000KT 10SM CLR 04/M05 A2993 RMK AO2 SLP157 T00441050 $
                 =
2017-11-21 19:56 METAR KRUT 220056Z AUTO 10003KT 10SM CLR 05/M05 A2992 RMK AO2 SLP151 T00501050 $
                 =
2017-11-21 18:56 METAR KRUT 212356Z AUTO 10006KT 10SM CLR 06/M06 A2990 RMK AO2 SLP147 T00611056
                 10139 20061 51014 $ =
2017-11-21 17:56 METAR KRUT 212256Z AUTO 14007KT 10SM CLR 09/M07 A2989 RMK AO2 SLP145 T00941072 $
                 =
2017-11-21 16:56 METAR KRUT 212156Z AUTO 17008KT 10SM CLR 11/M08 A2988 RMK AO2 SLP140 T01061078 $
                 =
2017-11-21 15:56 METAR KRUT 212056Z AUTO 16005G14KT 10SM CLR 12/M08 A2986 RMK AO2 SLP133
                 T01221083 53004 $ =
2017-11-21 14:56 METAR KRUT 211956Z AUTO 17013G18KT 10SM CLR 14/M08 A2984 RMK AO2 SLP129
                 T01391083 $ =
2017-11-21 13:56 METAR KRUT 211856Z AUTO 18010G19KT 10SM CLR 14/M08 A2984 RMK AO2 SLP128
                 T01391078 $ =
2017-11-21 12:56 METAR KRUT 211756Z AUTO 20012G23KT 170V230 10SM CLR 14/M08 A2985 RMK AO2 SLP131
                 T01391083 10139 21011 56031 $ =
2017-11-21 11:56 METAR KRUT 211656Z AUTO 16009KT 10SM CLR 13/M07 A2988 RMK AO2 SLP140 T01331067 $
                 =
2017-11-21 10:56 METAR KRUT 211556Z AUTO 18004KT 10SM CLR 11/M06 A2991 RMK AO2 SLP150 T01061056 $
                 =
2017-11-21 09:56 METAR KRUT 211456Z AUTO VRB04KT 10SM CLR 08/M06 A2994 RMK AO2 SLP162 T00831056
                 58016 $ =
2017-11-21 08:56 METAR KRUT 211356Z AUTO 14005KT 10SM CLR 04/M04 A2997 RMK AO2 SLP169 T00391039 $
                 =
2017-11-21 07:56 METAR KRUT 211256Z AUTO 11006KT 10SM CLR 01/M04 A2999 RMK AO2 SLP178 T00061044
                 FZRANO $ =

Support USWX by starting your Amazon purchase here.